createdAt,value
2018-08-23T00:00:16.636Z,82.02
2018-08-23T00:02:45.728Z,81.45
2018-08-23T00:05:14.773Z,81.01
2018-08-23T00:07:43.845Z,83.77
2018-08-23T00:12:48.709Z,81.56
2018-08-23T00:15:17.775Z,83.02
2018-08-23T00:17:46.851Z,82.45
2018-08-23T00:20:15.886Z,80.72
2018-08-23T00:22:45.895Z,81.02
2018-08-23T00:25:14.953Z,84.08
2018-08-23T00:27:44.046Z,82.93
2018-08-23T00:30:13.117Z,81.11
2018-08-23T00:32:42.186Z,82.92
2018-08-23T00:35:11.244Z,85.28
2018-08-23T00:37:40.314Z,84.90
2018-08-23T00:40:09.463Z,84.99
2018-08-23T00:42:38.514Z,84.61
2018-08-23T00:50:19.126Z,84.04
2018-08-23T00:52:48.193Z,84.36
2018-08-23T00:55:17.317Z,85.03
2018-08-23T01:00:22.176Z,85.62
2018-08-23T01:02:51.242Z,85.46
2018-08-23T01:05:20.311Z,85.55
2018-08-23T01:07:49.377Z,85.56
2018-08-23T01:10:18.447Z,85.32
2018-08-23T01:12:47.497Z,85.01
2018-08-23T01:15:16.645Z,86.91
2018-08-23T01:20:21.505Z,86.63
2018-08-23T01:25:26.376Z,87.94
2018-08-23T01:27:57.387Z,87.79
2018-08-23T01:30:26.461Z,88.40
2018-08-23T01:32:55.631Z,88.48
2018-08-23T01:35:24.685Z,89.10
2018-08-23T01:37:53.747Z,89.91
2018-08-23T01:40:22.810Z,89.79
2018-08-23T01:42:51.881Z,89.11
2018-08-23T01:45:20.925Z,88.91
2018-08-23T01:47:51.006Z,89.15
2018-08-23T01:50:20.070Z,90.04
2018-08-23T01:52:49.172Z,90.77
2018-08-23T01:55:18.218Z,90.79
2018-08-23T01:57:49.197Z,90.87
2018-08-23T02:00:18.258Z,91.09
2018-08-23T02:05:26.538Z,92.10
2018-08-23T02:07:55.723Z,92.83
2018-08-23T02:14:08.894Z,93.62
2018-08-23T02:19:13.651Z,90.74
2018-08-23T02:21:42.728Z,92.69
2018-08-23T02:24:11.782Z,93.57
2018-08-23T02:26:40.845Z,93.48
2018-08-23T02:29:11.161Z,93.22
2018-08-23T02:31:41.175Z,92.80
2018-08-23T02:34:10.233Z,92.09
2018-08-23T02:36:40.306Z,91.45
2018-08-23T02:39:09.383Z,90.52
2018-08-23T02:41:38.414Z,89.60
2018-08-23T02:46:43.161Z,88.61
2018-08-23T02:54:23.880Z,87.42
2018-08-23T02:56:52.961Z,87.16
2018-08-23T02:59:22.016Z,86.68
2018-08-23T03:01:51.086Z,86.68
2018-08-23T03:04:20.166Z,86.37
2018-08-23T03:09:25.019Z,85.98
2018-08-23T03:11:54.068Z,85.50
2018-08-23T03:14:23.129Z,85.26
2018-08-23T03:16:53.267Z,85.45
2018-08-23T03:19:22.317Z,85.28
2018-08-23T03:21:51.387Z,85.18
2018-08-23T03:24:20.444Z,84.67
2018-08-23T03:29:25.304Z,84.74
2018-08-23T03:31:54.370Z,84.59
2018-08-23T03:34:23.426Z,84.34
2018-08-23T03:36:52.474Z,83.96
2018-08-23T03:39:21.546Z,83.76
2018-08-23T03:41:50.614Z,83.50
2018-08-23T03:44:19.677Z,83.30
2018-08-23T03:46:49.687Z,82.76
2018-08-23T03:49:18.749Z,82.27
2018-08-23T03:51:47.802Z,82.25
2018-08-23T03:56:52.739Z,81.69
2018-08-23T04:01:57.508Z,81.20
2018-08-23T04:04:26.562Z,80.97
2018-08-23T04:09:31.358Z,80.65
2018-08-23T04:17:12.088Z,81.13
2018-08-23T04:19:41.172Z,81.16
2018-08-23T04:22:10.289Z,81.26
2018-08-23T04:24:39.331Z,81.42
2018-08-23T04:27:08.399Z,81.31
2018-08-23T04:29:37.461Z,81.36
2018-08-23T04:32:06.509Z,81.37
2018-08-23T04:34:35.567Z,81.18
2018-08-23T04:37:04.625Z,80.98
2018-08-23T04:39:33.673Z,80.58
2018-08-23T04:42:03.081Z,80.45
2018-08-23T04:44:32.147Z,80.23
2018-08-23T04:47:01.213Z,79.89
2018-08-23T04:52:07.926Z,79.65
2018-08-23T04:54:37.015Z,79.62
2018-08-23T04:59:43.834Z,79.28
2018-08-23T05:02:13.871Z,78.52
2018-08-23T05:04:43.129Z,78.44
2018-08-23T05:07:12.809Z,78.56
2018-08-23T05:09:41.969Z,78.17
2018-08-23T05:12:11.024Z,78.07
2018-08-23T05:14:40.069Z,77.76
2018-08-23T05:19:44.921Z,77.38
2018-08-23T05:22:13.973Z,77.07
2018-08-23T05:24:43.053Z,76.93
2018-08-23T05:27:12.098Z,76.63
2018-08-23T05:29:41.212Z,76.57
2018-08-23T05:32:10.273Z,76.48
2018-08-23T05:34:39.327Z,76.07
2018-08-23T05:37:08.408Z,75.99
2018-08-23T05:39:37.484Z,76.24
2018-08-23T05:44:42.278Z,76.56
2018-08-23T05:47:11.346Z,76.53
2018-08-23T05:49:40.402Z,76.17
2018-08-23T05:52:09.441Z,76.02
2018-08-23T05:54:38.505Z,75.23
2018-08-23T05:57:07.549Z,75.19
2018-08-23T05:59:36.593Z,75.68
2018-08-23T06:02:05.665Z,75.62
2018-08-23T06:04:34.745Z,75.12
2018-08-23T06:07:03.793Z,75.08
2018-08-23T06:09:33.856Z,72.05
2018-08-23T06:12:02.906Z,72.63
2018-08-23T06:14:31.945Z,70.22
2018-08-23T06:17:00.998Z,69.48
2018-08-23T06:19:31.996Z,68.83
2018-08-23T06:22:01.052Z,67.99
2018-08-23T06:24:30.373Z,68.66
2018-08-23T06:26:59.434Z,66.89
2018-08-23T06:29:28.514Z,66.06
2018-08-23T06:31:58.781Z,65.47
2018-08-23T06:34:27.841Z,65.24
2018-08-23T06:39:34.637Z,63.19
2018-08-23T06:42:03.727Z,62.94
2018-08-23T06:44:33.804Z,63.33
2018-08-23T06:47:02.788Z,62.68
2018-08-23T06:49:31.843Z,61.10
2018-08-23T06:52:00.943Z,61.43
2018-08-23T06:54:29.949Z,61.00
2018-08-23T06:56:59.023Z,59.81
2018-08-23T06:59:28.077Z,59.94
2018-08-23T07:02:01.113Z,59.79
2018-08-23T07:04:30.319Z,59.92
2018-08-23T07:06:59.373Z,59.83
2018-08-23T07:09:28.409Z,58.28
2018-08-23T07:11:57.597Z,57.78
2018-08-23T07:14:26.631Z,57.02
2018-08-23T07:16:55.676Z,55.90
2018-08-23T07:19:25.614Z,57.03
2018-08-23T07:24:30.493Z,54.92
2018-08-23T07:29:36.395Z,54.32
2018-08-23T07:32:05.412Z,53.65
2018-08-23T07:34:34.833Z,52.84
2018-08-23T07:39:39.811Z,52.02
2018-08-23T07:44:45.797Z,52.28
2018-08-23T07:49:50.695Z,50.97
2018-08-23T07:52:19.873Z,51.86
2018-08-23T07:54:48.923Z,52.71
2018-08-23T07:57:18.009Z,52.38
2018-08-23T07:59:47.055Z,51.19
2018-08-23T08:02:16.135Z,52.78
2018-08-23T08:04:45.183Z,51.78
2018-08-23T08:07:15.180Z,51.73
2018-08-23T08:12:20.071Z,52.15
2018-08-23T08:14:51.071Z,50.56
2018-08-23T08:19:55.962Z,50.66
2018-08-23T08:22:25.148Z,50.15
2018-08-23T08:24:55.137Z,51.12
2018-08-23T08:27:24.182Z,50.25
2018-08-23T08:29:53.237Z,49.98
2018-08-23T08:32:23.254Z,50.64
2018-08-23T08:34:52.333Z,50.05
2018-08-23T08:37:22.372Z,49.54
2018-08-23T08:42:28.273Z,49.61
2018-08-23T08:44:57.329Z,48.74
2018-08-23T08:47:26.810Z,48.46
2018-08-23T08:49:55.862Z,47.97
2018-08-23T08:52:25.074Z,47.55
2018-08-23T08:54:54.505Z,47.26
2018-08-23T08:57:24.281Z,48.23
2018-08-23T08:59:55.328Z,46.91
2018-08-23T09:02:24.381Z,45.73
2018-08-23T09:07:29.225Z,41.35
2018-08-23T09:09:58.262Z,38.83
2018-08-23T09:12:30.395Z,35.67
2018-08-23T09:17:35.426Z,36.68
2018-08-23T09:20:04.499Z,36.10
2018-08-23T09:22:33.558Z,36.43
2018-08-23T09:25:02.977Z,36.26
2018-08-23T09:27:32.005Z,39.42
2018-08-23T09:30:02.027Z,37.89
2018-08-23T09:32:31.445Z,37.76
2018-08-23T09:35:00.500Z,37.80
2018-08-23T09:40:05.413Z,37.06
2018-08-23T09:42:38.995Z,35.05
2018-08-23T09:45:08.058Z,34.17
2018-08-23T09:47:37.094Z,33.84
2018-08-23T09:50:06.242Z,33.84
2018-08-23T09:52:35.229Z,34.79
2018-08-23T09:55:04.310Z,33.60
2018-08-23T09:57:33.369Z,32.69
2018-08-23T10:00:02.422Z,31.35
2018-08-23T10:05:30.220Z,32.20
2018-08-23T10:07:59.266Z,30.99
2018-08-23T10:20:59.012Z,30.62
2018-08-23T10:23:28.066Z,30.23
2018-08-23T10:25:57.168Z,31.98
2018-08-23T10:28:27.230Z,29.48
2018-08-23T10:30:56.333Z,30.38
2018-08-23T10:33:25.372Z,29.72
2018-08-23T10:35:54.608Z,29.71
2018-08-23T10:38:23.656Z,30.43
2018-08-23T10:40:52.722Z,29.79
2018-08-23T10:43:21.963Z,29.82
2018-08-23T10:45:51.019Z,29.23
2018-08-23T10:48:20.085Z,31.09
2018-08-23T10:50:49.272Z,30.68
2018-08-23T10:53:18.239Z,31.39
2018-08-23T10:55:48.274Z,31.52
2018-08-23T10:58:17.329Z,30.39
2018-08-23T11:00:46.405Z,30.82
2018-08-23T11:03:15.470Z,29.81
2018-08-23T11:05:45.499Z,29.99
2018-08-23T11:13:45.558Z,27.99
2018-08-23T11:16:14.955Z,28.53
2018-08-23T11:21:20.123Z,29.01
2018-08-23T11:23:49.166Z,29.94
2018-08-23T11:26:18.231Z,26.69
2018-08-23T11:28:47.558Z,26.71
2018-08-23T11:31:16.622Z,27.00
2018-08-23T11:33:45.669Z,25.57
2018-08-23T11:36:14.903Z,25.73
2018-08-23T11:38:43.976Z,26.20
2018-08-23T11:41:13.063Z,26.01
2018-08-23T11:43:42.459Z,24.04
2018-08-23T11:48:47.721Z,24.80
2018-08-23T11:53:52.957Z,25.57
2018-08-23T11:56:22.013Z,25.51
2018-08-23T11:58:51.060Z,25.86
2018-08-23T12:03:55.816Z,26.83
2018-08-23T12:06:25.117Z,26.15
2018-08-23T12:08:54.158Z,24.95
2018-08-23T12:11:23.210Z,24.72
2018-08-23T12:16:27.982Z,24.74
2018-08-23T12:18:57.296Z,27.49
2018-08-23T12:21:26.350Z,26.60
2018-08-23T12:23:55.407Z,27.84
2018-08-23T12:26:24.789Z,25.40
2018-08-23T12:28:53.841Z,23.13
2018-08-23T12:31:22.905Z,25.40
2018-08-23T12:33:52.989Z,22.87
2018-08-23T12:44:34.308Z,23.05
2018-08-23T12:47:03.628Z,22.73
2018-08-23T12:52:08.625Z,27.08
2018-08-23T12:54:41.469Z,26.21
2018-08-23T12:57:10.540Z,24.83
2018-08-23T12:59:39.773Z,25.89
2018-08-23T13:02:08.882Z,27.40
2018-08-23T13:04:37.882Z,27.53
2018-08-23T13:07:07.161Z,27.94
2018-08-23T13:09:36.232Z,29.30
2018-08-23T13:12:05.277Z,28.84
2018-08-23T13:17:11.301Z,30.15
2018-08-23T13:19:40.356Z,29.84
2018-08-23T13:22:09.389Z,29.29
2018-08-23T13:24:39.432Z,29.40
2018-08-23T13:27:08.479Z,29.29
2018-08-23T13:29:37.561Z,30.08
2018-08-23T13:32:06.625Z,29.71
2018-08-23T13:34:35.677Z,30.23
2018-08-23T13:37:04.778Z,29.43
2018-08-23T13:39:33.791Z,29.80
2018-08-23T13:42:02.878Z,30.70
2018-08-23T13:47:07.695Z,26.54
2018-08-23T13:49:36.771Z,27.31
2018-08-23T13:52:06.781Z,30.60
2018-08-23T13:54:39.994Z,33.88
2018-08-23T13:57:09.077Z,36.27
2018-08-23T13:59:38.138Z,34.04
2018-08-23T14:02:08.342Z,30.51
2018-08-23T14:04:37.424Z,30.64
2018-08-23T14:09:42.269Z,28.17
2018-08-23T14:14:47.134Z,25.21
2018-08-23T14:17:17.114Z,26.34
2018-08-23T14:19:46.383Z,27.62
2018-08-23T14:22:16.449Z,26.43
2018-08-23T14:24:45.510Z,26.57
2018-08-23T14:27:14.653Z,28.98
2018-08-23T14:29:44.567Z,31.00
2018-08-23T14:32:13.621Z,33.48
2018-08-23T14:34:42.672Z,35.20
2018-08-23T14:37:11.734Z,36.63
2018-08-23T14:39:40.762Z,37.32
2018-08-23T14:42:09.813Z,37.49
2018-08-23T14:44:39.028Z,36.79
2018-08-23T14:50:02.973Z,34.54
2018-08-23T14:52:32.040Z,35.08
2018-08-23T14:55:01.336Z,37.46
2018-08-23T15:00:07.598Z,37.74
2018-08-23T15:02:36.634Z,40.23
2018-08-23T15:05:05.694Z,42.17
2018-08-23T15:07:34.767Z,41.82
2018-08-23T15:10:03.817Z,43.82
2018-08-23T15:12:33.851Z,44.47
2018-08-23T15:15:02.991Z,46.65
2018-08-23T15:20:07.772Z,45.96
2018-08-23T15:22:37.868Z,46.69
2018-08-23T15:27:42.995Z,44.68
2018-08-23T15:30:12.017Z,46.02
2018-08-23T15:32:41.065Z,47.51
2018-08-23T15:35:10.123Z,48.27
2018-08-23T15:37:39.173Z,48.54
2018-08-23T15:40:09.191Z,49.62
2018-08-23T15:42:38.498Z,50.35
2018-08-23T15:47:43.660Z,51.27
2018-08-23T15:50:12.718Z,52.46
2018-08-23T15:52:41.769Z,53.66
2018-08-23T15:55:10.968Z,54.91
2018-08-23T15:57:39.909Z,54.24
2018-08-23T16:02:44.746Z,53.70
2018-08-23T16:07:50.585Z,56.38
2018-08-23T16:10:20.708Z,56.02
2018-08-23T16:12:49.728Z,54.82
2018-08-23T16:15:18.771Z,55.25
2018-08-23T16:20:48.618Z,55.10
2018-08-23T16:23:17.764Z,57.00
2018-08-23T16:25:46.812Z,56.17
2018-08-23T16:28:15.898Z,55.99
2018-08-23T16:30:44.949Z,55.47
2018-08-23T16:33:14.938Z,57.27
2018-08-23T16:35:43.977Z,60.00
2018-08-23T16:38:13.035Z,59.06
2018-08-23T16:40:42.083Z,59.01
2018-08-23T16:43:11.137Z,59.88
2018-08-23T16:45:40.173Z,60.61
2018-08-23T16:48:09.222Z,60.46
2018-08-23T16:53:14.167Z,61.02
2018-08-23T16:55:43.174Z,61.16
2018-08-23T17:00:48.063Z,60.39
2018-08-23T17:03:17.124Z,61.42
2018-08-23T17:05:46.177Z,61.50
2018-08-23T17:08:15.243Z,62.51
2018-08-23T17:10:44.280Z,60.73
2018-08-23T17:13:13.328Z,61.91
2018-08-23T17:15:43.348Z,63.10
2018-08-23T17:18:12.473Z,63.11
2018-08-23T17:20:41.459Z,61.26
2018-08-23T17:25:46.330Z,59.08
2018-08-23T17:28:15.366Z,63.76
2018-08-23T17:30:44.470Z,75.13
2018-08-23T17:33:13.493Z,77.08
2018-08-23T17:35:44.536Z,77.75
2018-08-23T17:38:14.551Z,75.35
2018-08-23T17:40:45.709Z,74.82
2018-08-23T17:43:14.824Z,71.89
2018-08-23T17:48:19.691Z,70.30
2018-08-23T17:50:48.893Z,68.94
2018-08-23T17:53:17.959Z,69.85
2018-08-23T17:55:47.091Z,70.45
2018-08-23T18:00:51.822Z,70.96
2018-08-23T18:03:20.930Z,70.79
2018-08-23T18:05:50.920Z,70.11
2018-08-23T18:08:20.806Z,71.06
2018-08-23T18:10:49.853Z,70.23
2018-08-23T18:13:18.922Z,69.69
2018-08-23T18:15:47.969Z,69.29
2018-08-23T18:18:17.057Z,69.96
2018-08-23T18:23:21.925Z,71.18
2018-08-23T18:25:50.989Z,69.96
2018-08-23T18:28:20.033Z,70.30
2018-08-23T18:30:49.084Z,70.28
2018-08-23T18:33:18.168Z,70.66
2018-08-23T18:35:47.203Z,68.52
2018-08-23T18:40:52.054Z,71.00
2018-08-23T18:43:22.069Z,73.96
2018-08-23T18:48:26.921Z,76.07
2018-08-23T18:53:31.788Z,77.38
2018-08-23T18:56:00.849Z,78.93
2018-08-23T18:58:29.936Z,77.75
2018-08-23T19:00:58.979Z,78.85
2018-08-23T19:03:28.031Z,77.02
2018-08-23T19:08:32.830Z,78.60
2018-08-23T19:11:01.894Z,78.41
2018-08-23T19:13:31.996Z,79.14
2018-08-23T19:16:01.132Z,80.56
2018-08-23T19:18:30.183Z,82.53
2018-08-23T19:20:59.229Z,83.42
2018-08-23T19:23:28.281Z,84.79
2018-08-23T19:25:57.353Z,83.27
2018-08-23T19:28:26.378Z,84.81
2018-08-23T19:30:55.423Z,87.55
2018-08-23T19:33:25.462Z,87.86
2018-08-23T19:38:30.344Z,88.66
2018-08-23T19:40:59.380Z,88.59
2018-08-23T19:43:28.438Z,88.90
2018-08-23T19:45:57.477Z,89.85
2018-08-23T19:48:26.525Z,88.70
2018-08-23T19:50:55.614Z,87.20
2018-08-23T19:53:24.679Z,86.80
2018-08-23T19:55:54.722Z,87.31
2018-08-23T19:58:23.815Z,87.23
2018-08-23T20:00:52.875Z,87.08
2018-08-23T20:03:21.904Z,88.15
2018-08-23T20:05:50.962Z,88.57
2018-08-23T20:08:20.028Z,87.93
2018-08-23T20:10:49.116Z,88.67
2018-08-23T20:13:18.157Z,88.59
2018-08-23T20:15:47.219Z,88.63
2018-08-23T20:18:16.262Z,87.95
2018-08-23T20:20:45.309Z,88.18
2018-08-23T20:25:50.168Z,85.86
2018-08-23T20:28:19.294Z,85.30
2018-08-23T20:30:48.334Z,84.93
2018-08-23T20:33:18.353Z,83.79
2018-08-23T20:35:47.410Z,83.91
2018-08-23T20:38:16.457Z,83.49
2018-08-23T20:40:45.493Z,83.29
2018-08-23T20:43:14.548Z,82.71
2018-08-23T20:45:43.598Z,82.61
2018-08-23T20:48:12.691Z,82.66
2018-08-23T20:50:41.732Z,82.28
2018-08-23T20:53:10.779Z,82.38
2018-08-23T20:55:39.856Z,82.67
2018-08-23T20:58:08.921Z,82.01
2018-08-23T21:00:37.941Z,82.19
2018-08-23T21:03:07.002Z,81.76
2018-08-23T21:05:37.054Z,81.66
2018-08-23T21:13:17.609Z,81.39
2018-08-23T21:15:46.641Z,81.36
2018-08-23T21:18:15.683Z,82.33
2018-08-23T21:20:48.749Z,82.52
2018-08-23T21:23:17.838Z,82.88
2018-08-23T21:25:46.882Z,83.37
2018-08-23T21:28:15.965Z,83.35
2018-08-23T21:30:45.018Z,83.16
2018-08-23T21:33:14.068Z,83.74
2018-08-23T21:38:18.928Z,81.92
2018-08-23T21:40:47.957Z,80.57
2018-08-23T21:43:17.009Z,83.24
2018-08-23T21:45:46.054Z,83.34
2018-08-23T21:48:15.117Z,83.81
2018-08-23T21:50:45.130Z,83.79
2018-08-23T21:53:14.167Z,83.67
2018-08-23T21:55:44.138Z,83.65
2018-08-23T21:58:13.187Z,83.87
2018-08-23T22:00:42.291Z,85.26
2018-08-23T22:03:11.333Z,84.05
2018-08-23T22:05:40.382Z,84.23
2018-08-23T22:08:09.441Z,84.85
2018-08-23T22:10:38.489Z,85.66
2018-08-23T22:13:07.595Z,85.86
2018-08-23T22:15:36.669Z,86.02
2018-08-23T22:18:05.726Z,87.69
2018-08-23T22:20:34.779Z,87.63
2018-08-23T22:23:04.852Z,88.00
2018-08-23T22:28:09.653Z,85.39
2018-08-23T22:30:38.693Z,87.02
2018-08-23T22:33:07.795Z,85.73
2018-08-23T22:35:37.824Z,86.38
2018-08-23T22:38:06.860Z,86.25
2018-08-23T22:40:35.905Z,87.01
2018-08-23T22:43:04.974Z,86.80
2018-08-23T22:45:34.043Z,85.61
2018-08-23T22:50:38.891Z,85.59
2018-08-23T22:53:07.934Z,86.58
2018-08-23T22:55:36.993Z,87.57
2018-08-23T22:58:11.114Z,88.72
2018-08-23T23:03:20.998Z,90.86
2018-08-23T23:05:53.644Z,91.16
2018-08-23T23:08:28.137Z,92.06
2018-08-23T23:11:01.527Z,90.59
2018-08-23T23:13:34.953Z,89.65
2018-08-23T23:18:44.933Z,89.50
2018-08-23T23:21:18.796Z,90.01
2018-08-23T23:23:52.650Z,91.23
2018-08-23T23:26:26.358Z,89.65
2018-08-23T23:29:00.001Z,88.02
2018-08-23T23:31:33.265Z,87.31
2018-08-23T23:34:08.679Z,87.42
2018-08-23T23:36:41.973Z,87.84
2018-08-23T23:41:51.895Z,87.09
2018-08-23T23:44:24.996Z,86.95
2018-08-23T23:46:58.217Z,86.21
2018-08-23T23:49:30.738Z,86.21
2018-08-23T23:52:03.673Z,86.46
2018-08-23T23:54:36.590Z,85.80
2018-08-23T23:57:10.012Z,85.30
2018-08-23T23:59:44.064Z,85.10
